Time;durP1;ratioP1;P1;durP2;ratioP2;P2;SDS_P1;SDS_P2;PMS_P1;PMS_P2;Temp;Humidity;BMP_temperature;BMP_pressure;BME280_temperature;BME280_humidity;BME280_pressure;Samples;Min_cycle;Max_cycle;Signal;HPM_P1;HPM_P2
2021/05/12 00:00:31;;;;;;;21.85;19.17;;;14.20;83.20;;;;;;5015490;28;20041;-78
2021/05/12 00:02:56;;;;;;;24.42;19.50;;;14.20;83.20;;;;;;5032869;28;20107;-78
2021/05/12 00:05:23;;;;;;;21.75;18.38;;;14.20;83.30;;;;;;5015065;28;20152;-76
2021/05/12 00:07:49;;;;;;;20.25;18.00;;;14.10;83.20;;;;;;5015277;28;20088;-76
2021/05/12 00:10:15;;;;;;;20.67;17.80;;;14.10;83.30;;;;;;5015732;28;20049;-78
2021/05/12 00:12:41;;;;;;;20.05;17.73;;;14.10;83.30;;;;;;4999101;28;20051;-81
2021/05/12 00:15:09;;;;;;;21.70;18.10;;;14.10;83.30;;;;;;5015327;28;20128;-76
2021/05/12 00:17:37;;;;;;;20.42;18.23;;;14.10;83.30;;;;;;4998991;28;20053;-77
2021/05/12 00:20:07;;;;;;;23.00;18.55;;;14.10;83.40;;;;;;5015195;28;20381;-77
2021/05/12 00:25:03;;;;;;;21.45;18.83;;;14.10;83.40;;;;;;5015458;28;20496;-76
2021/05/12 00:27:29;;;;;;;24.08;20.02;;;14.10;83.40;;;;;;4999018;28;20456;-77
2021/05/12 00:29:55;;;;;;;24.90;19.73;;;14.10;83.40;;;;;;5014935;28;20054;-77
2021/05/12 00:32:20;;;;;;;21.63;18.75;;;14.00;83.40;;;;;;5032878;28;20041;-76
2021/05/12 00:34:46;;;;;;;24.02;18.30;;;14.00;83.40;;;;;;5032104;28;20053;-83
2021/05/12 00:37:12;;;;;;;24.00;19.40;;;14.00;83.40;;;;;;5032577;28;20052;-76
2021/05/12 00:39:38;;;;;;;24.08;18.67;;;14.00;83.50;;;;;;5014873;28;20052;-77
2021/05/12 00:42:04;;;;;;;20.10;17.50;;;14.00;83.50;;;;;;5014698;28;20041;-78
2021/05/12 00:44:30;;;;;;;22.13;19.83;;;14.00;83.50;;;;;;4998570;28;20041;-76
2021/05/12 00:46:55;;;;;;;21.75;18.35;;;14.00;83.60;;;;;;4997912;28;20461;-77
2021/05/12 00:49:23;;;;;;;21.45;18.13;;;13.90;83.60;;;;;;4998288;28;20454;-76
2021/05/12 00:51:48;;;;;;;22.33;17.25;;;14.00;83.70;;;;;;5032400;28;20120;-83
2021/05/12 00:54:14;;;;;;;20.77;18.58;;;13.90;83.70;;;;;;4998963;28;20566;-77
2021/05/12 00:56:41;;;;;;;19.80;17.70;;;13.90;83.70;;;;;;5032020;28;20041;-77
2021/05/12 00:59:07;;;;;;;19.35;17.35;;;13.90;83.70;;;;;;5014460;28;20037;-76
2021/05/12 01:01:35;;;;;;;20.15;18.05;;;13.90;83.80;;;;;;5014977;28;20390;-77
2021/05/12 01:04:01;;;;;;;19.35;17.23;;;13.90;83.80;;;;;;5014266;28;20049;-78
2021/05/12 01:06:33;;;;;;;19.38;17.27;;;13.90;83.90;;;;;;5014200;28;20038;-77
2021/05/12 01:08:59;;;;;;;18.13;16.43;;;13.90;83.90;;;;;;5014089;28;20045;-78
2021/05/12 01:11:25;;;;;;;19.90;17.92;;;13.90;83.90;;;;;;4998402;28;20303;-77
2021/05/12 01:13:51;;;;;;;20.80;17.77;;;13.90;83.90;;;;;;5014015;28;20050;-87
2021/05/12 01:16:17;;;;;;;19.45;17.45;;;13.90;83.90;;;;;;5032513;28;20052;-77
2021/05/12 01:18:43;;;;;;;18.77;16.77;;;13.80;84.10;;;;;;5001379;28;20069;-77
2021/05/12 01:21:09;;;;;;;21.17;17.48;;;13.80;84.00;;;;;;5034654;28;20127;-77
2021/05/12 01:23:36;;;;;;;18.70;16.75;;;13.80;84.00;;;;;;5001180;28;20046;-78
2021/05/12 01:26:06;;;;;;;18.90;17.00;;;13.80;84.00;;;;;;5016352;28;20080;-76
2021/05/12 01:28:34;;;;;;;20.95;16.90;;;13.80;84.10;;;;;;5017962;28;20088;-77
2021/05/12 01:31:20;;;;;;;18.30;16.42;;;13.80;84.10;;;;;;5001222;28;20479;-79
2021/05/12 01:33:46;;;;;;;20.13;17.33;;;13.80;84.20;;;;;;5017850;28;20045;-77
2021/05/12 01:36:12;;;;;;;19.30;16.38;;;13.80;84.20;;;;;;5017356;28;20041;-76
2021/05/12 01:38:39;;;;;;;23.10;17.10;;;13.70;84.10;;;;;;5017906;28;20393;-78
2021/05/12 01:41:05;;;;;;;19.60;17.20;;;13.80;84.20;;;;;;5017490;28;20450;-78
2021/05/12 01:43:31;;;;;;;22.40;17.92;;;13.70;84.10;;;;;;5017900;28;20037;-77
2021/05/12 01:45:57;;;;;;;22.05;19.13;;;13.70;84.20;;;;;;5016980;28;20056;-78
2021/05/12 01:48:23;;;;;;;20.17;17.98;;;13.70;84.20;;;;;;5017491;28;20549;-77
2021/05/12 01:50:49;;;;;;;22.20;17.83;;;13.70;84.20;;;;;;5017360;28;20159;-78
2021/05/12 01:53:15;;;;;;;21.77;18.15;;;13.70;84.20;;;;;;5035226;28;20113;-78
2021/05/12 01:55:41;;;;;;;22.40;19.58;;;13.70;84.20;;;;;;5017347;28;20045;-76
2021/05/12 01:58:07;;;;;;;23.33;20.67;;;13.70;84.20;;;;;;5017165;28;20498;-77
2021/05/12 02:00:39;;;;;;;27.17;20.88;;;13.70;84.40;;;;;;5035586;28;20037;-77
2021/05/12 02:03:07;;;;;;;;;;;13.60;84.40;;;;;;5000868;28;20075;-77
2021/05/12 02:05:33;;;;;;;23.45;20.52;;;13.60;85.40;;;;;;5017275;28;19928;-78
2021/05/12 02:08:00;;;;;;;26.08;20.63;;;13.60;84.20;;;;;;5016852;28;20049;-79
2021/05/12 02:10:27;;;;;;;26.52;20.98;;;13.60;84.20;;;;;;5016909;28;20064;-77
2021/05/12 02:12:52;;;;;;;24.55;20.90;;;13.60;84.30;;;;;;5016963;28;20042;-76
2021/05/12 02:15:18;;;;;;;23.27;20.08;;;13.60;84.40;;;;;;5000556;28;20153;-76
2021/05/12 02:17:44;;;;;;;25.75;20.83;;;13.60;84.40;;;;;;5017188;28;20511;-77
2021/05/12 02:20:11;;;;;;;25.95;21.75;;;13.50;84.50;;;;;;5016069;28;20052;-77
2021/05/12 02:22:40;;;;;;;25.25;22.08;;;13.50;84.50;;;;;;5000725;28;20080;-76
2021/05/12 02:25:06;;;;;;;24.83;21.80;;;13.50;84.40;;;;;;5000884;28;20055;-78
2021/05/12 02:27:34;;;;;;;26.73;22.30;;;13.50;84.50;;;;;;5013093;28;20090;-77
2021/05/12 02:30:01;;;;;;;28.02;22.75;;;13.50;84.50;;;;;;4996349;28;20513;-82
2021/05/12 02:32:27;;;;;;;27.23;23.60;;;13.50;84.60;;;;;;5014059;28;20038;-77
2021/05/12 02:34:54;;;;;;;27.80;23.10;;;13.50;84.60;;;;;;5014084;28;20045;-76
2021/05/12 02:37:19;;;;;;;31.58;22.80;;;13.50;84.60;;;;;;5012257;28;20058;-76
2021/05/12 02:39:45;;;;;;;27.33;21.08;;;13.50;84.60;;;;;;5013466;28;20092;-76
2021/05/12 02:42:11;;;;;;;31.48;23.08;;;13.50;84.60;;;;;;5012811;28;20088;-76
2021/05/12 02:44:37;;;;;;;30.15;24.08;;;13.50;84.70;;;;;;5012463;28;20050;-76
2021/05/12 02:47:02;;;;;;;28.45;23.65;;;13.50;84.80;;;;;;5013523;28;20499;-85
2021/05/12 02:49:28;;;;;;;33.72;24.98;;;13.50;84.80;;;;;;5012350;28;20049;-77
2021/05/12 02:51:54;;;;;;;32.88;24.33;;;13.50;84.90;;;;;;5012564;28;20133;-76
2021/05/12 02:54:20;;;;;;;29.10;23.67;;;13.50;84.90;;;;;;5012258;28;20097;-77
2021/05/12 02:56:46;;;;;;;29.25;24.77;;;13.50;84.90;;;;;;5012446;28;20064;-76
2021/05/12 02:59:11;;;;;;;32.97;24.95;;;13.40;84.80;;;;;;5012332;28;20434;-77
2021/05/12 03:01:37;;;;;;;29.00;24.60;;;13.50;84.90;;;;;;5012266;28;20050;-76
2021/05/12 03:04:03;;;;;;;26.60;23.70;;;13.40;84.90;;;;;;5013214;28;20061;-76
2021/05/12 03:06:29;;;;;;;29.63;23.83;;;13.40;84.90;;;;;;5011636;28;20044;-76
2021/05/12 03:08:55;;;;;;;29.20;24.20;;;13.40;84.90;;;;;;5012565;28;20041;-76
2021/05/12 03:11:21;;;;;;;29.33;23.42;;;13.40;85.00;;;;;;5012046;28;20081;-77
2021/05/12 03:13:47;;;;;;;32.10;24.27;;;13.40;85.00;;;;;;5012602;28;20045;-77
2021/05/12 03:16:13;;;;;;;26.83;23.05;;;13.40;85.00;;;;;;4995398;28;20141;-76
2021/05/12 03:18:39;;;;;;;29.73;24.02;;;13.40;85.00;;;;;;5012025;28;20053;-77
2021/05/12 03:21:04;;;;;;;27.17;23.23;;;13.30;85.00;;;;;;5012372;28;20049;-78
2021/05/12 03:23:30;;;;;;;30.88;24.52;;;13.30;85.00;;;;;;4995298;28;20100;-77
2021/05/12 03:25:56;;;;;;;29.45;23.50;;;13.30;85.00;;;;;;4996526;28;20069;-77
2021/05/12 03:28:22;;;;;;;26.95;23.13;;;13.30;85.00;;;;;;5015262;28;20045;-77
2021/05/12 03:30:48;;;;;;;29.42;23.45;;;13.30;85.10;;;;;;5033316;28;20436;-77
2021/05/12 03:33:14;;;;;;;29.67;23.25;;;13.30;85.10;;;;;;5032705;28;20052;-78
2021/05/12 03:35:40;;;;;;;27.65;23.58;;;13.30;85.10;;;;;;4999212;28;20370;-76
2021/05/12 03:38:06;;;;;;;28.02;23.10;;;13.30;85.10;;;;;;5000396;28;20048;-77
2021/05/12 03:40:32;;;;;;;28.35;23.77;;;13.30;85.10;;;;;;5016350;28;20057;-77
2021/05/12 03:42:58;;;;;;;28.75;23.95;;;13.20;85.10;;;;;;5016726;28;20120;-76
2021/05/12 03:45:24;;;;;;;29.50;22.75;;;13.30;85.20;;;;;;4984089;28;20053;-76
2021/05/12 03:47:50;;;;;;;26.77;23.10;;;13.20;85.20;;;;;;5016561;28;20050;-75
2021/05/12 03:50:16;;;;;;;27.77;23.60;;;13.20;85.30;;;;;;5015881;28;20049;-77
2021/05/12 03:52:42;;;;;;;29.00;23.88;;;13.20;85.20;;;;;;4999591;28;20528;-77
2021/05/12 03:55:08;;;;;;;30.48;24.95;;;13.20;85.20;;;;;;5015215;28;20496;-76
2021/05/12 03:57:34;;;;;;;27.52;23.42;;;13.20;85.20;;;;;;5015627;28;20049;-76
2021/05/12 04:00:00;;;;;;;29.40;24.20;;;13.20;85.30;;;;;;5000017;28;20045;-76
2021/05/12 04:02:26;;;;;;;28.88;23.80;;;13.20;85.30;;;;;;5033034;28;20541;-77
2021/05/12 04:04:52;;;;;;;28.25;23.90;;;13.10;85.20;;;;;;5015238;28;20083;-75
2021/05/12 04:07:18;;;;;;;27.15;22.42;;;13.10;85.20;;;;;;4999049;28;20402;-78
2021/05/12 04:09:44;;;;;;;29.98;23.48;;;13.10;85.10;;;;;;4998643;28;20113;-77
2021/05/12 04:12:10;;;;;;;27.85;23.98;;;13.10;85.20;;;;;;5015249;28;20195;-77
2021/05/12 04:14:36;;;;;;;27.50;22.25;;;13.10;85.20;;;;;;5015195;28;20044;-76
2021/05/12 04:17:02;;;;;;;25.90;22.30;;;13.10;85.00;;;;;;5032805;28;20052;-75
2021/05/12 04:19:30;;;;;;;28.10;23.92;;;13.10;85.10;;;;;;5014830;28;20119;-77
2021/05/12 04:21:56;;;;;;;27.08;23.60;;;13.10;85.20;;;;;;4998930;28;20454;-76
2021/05/12 04:24:22;;;;;;;28.10;24.02;;;13.00;85.10;;;;;;5015060;28;20500;-75
2021/05/12 04:26:48;;;;;;;27.13;22.52;;;13.10;85.20;;;;;;5014204;28;20140;-75
2021/05/12 04:29:15;;;;;;;28.20;23.23;;;13.00;85.10;;;;;;5015144;28;20132;-77
2021/05/12 04:31:40;;;;;;;28.25;22.90;;;13.10;85.20;;;;;;4998619;28;20049;-76
2021/05/12 04:34:06;;;;;;;27.02;22.38;;;13.10;85.20;;;;;;5015232;28;20512;-78
2021/05/12 04:36:32;;;;;;;26.75;22.90;;;13.10;85.20;;;;;;4998744;28;20050;-76
2021/05/12 04:38:58;;;;;;;27.30;22.38;;;13.10;85.20;;;;;;5015108;28;20053;-76
2021/05/12 04:41:24;;;;;;;26.92;23.30;;;13.00;85.20;;;;;;5015184;28;20171;-77
2021/05/12 04:43:50;;;;;;;25.08;22.02;;;13.10;85.40;;;;;;4998866;28;20055;-77
2021/05/12 04:46:15;;;;;;;25.33;21.00;;;13.10;85.30;;;;;;5015573;28;20064;-76
2021/05/12 04:48:41;;;;;;;25.65;21.75;;;13.10;85.30;;;;;;5015164;28;20037;-75
2021/05/12 04:51:07;;;;;;;25.17;21.42;;;13.10;85.20;;;;;;5015958;28;20125;-76
2021/05/12 04:53:33;;;;;;;24.38;20.77;;;13.10;85.20;;;;;;5018867;28;20045;-76
2021/05/12 04:55:59;;;;;;;24.63;20.73;;;13.10;85.20;;;;;;5019296;28;20073;-77
2021/05/12 04:58:24;;;;;;;23.80;20.60;;;13.10;85.20;;;;;;5018960;28;20050;-78
2021/05/12 05:00:50;;;;;;;23.83;20.73;;;13.10;85.20;;;;;;5019274;28;20073;-77
2021/05/12 05:03:16;;;;;;;23.13;20.48;;;13.10;85.10;;;;;;5001757;28;20072;-76
2021/05/12 05:05:42;;;;;;;25.05;21.02;;;13.10;85.20;;;;;;5001780;28;20041;-76
2021/05/12 05:08:08;;;;;;;21.80;19.23;;;13.10;85.20;;;;;;5002634;28;20048;-77
2021/05/12 05:10:34;;;;;;;22.33;19.70;;;13.10;85.20;;;;;;5018644;28;20045;-76
2021/05/12 05:13:00;;;;;;;21.15;18.42;;;13.10;85.20;;;;;;5018337;28;20115;-78
2021/05/12 05:15:26;;;;;;;22.27;19.05;;;13.10;85.20;;;;;;5035818;28;20077;-85
2021/05/12 05:17:52;;;;;;;21.77;18.58;;;13.10;85.10;;;;;;5018449;28;20045;-77
2021/05/12 05:20:18;;;;;;;23.13;18.38;;;13.10;85.00;;;;;;5002340;28;20080;-75
2021/05/12 05:22:44;;;;;;;20.63;18.13;;;13.10;85.00;;;;;;5018585;28;20056;-77
2021/05/12 05:25:10;;;;;;;20.65;16.45;;;13.10;84.90;;;;;;5002239;28;20147;-77
2021/05/12 05:27:36;;;;;;;19.85;15.93;;;13.10;84.80;;;;;;4998072;28;20467;-78
2021/05/12 05:30:02;;;;;;;19.05;15.40;;;13.10;84.70;;;;;;5017221;28;20121;-76
2021/05/12 05:32:28;;;;;;;18.08;15.80;;;13.10;84.60;;;;;;5016183;28;20050;-82
2021/05/12 05:34:54;;;;;;;17.35;15.20;;;13.10;84.50;;;;;;5016111;28;20050;-76
2021/05/12 05:37:23;;;;;;;18.63;15.13;;;13.10;84.20;;;;;;5016464;28;20083;-75
2021/05/12 05:39:50;;;;;;;17.25;13.07;;;13.10;84.20;;;;;;5000526;28;20040;-78
2021/05/12 05:42:16;;;;;;;14.60;12.00;;;13.00;83.90;;;;;;5030482;28;20053;-78
2021/05/12 05:44:42;;;;;;;15.63;12.32;;;13.00;83.80;;;;;;5023486;28;20038;-77
2021/05/12 05:47:11;;;;;;;17.30;11.93;;;13.00;83.80;;;;;;5014935;28;20049;-78
2021/05/12 05:49:37;;;;;;;19.08;11.63;;;13.00;83.60;;;;;;5037701;28;20045;-79
2021/05/12 05:52:03;;;;;;;15.50;10.60;;;13.00;83.50;;;;;;5024706;28;20106;-77
2021/05/12 05:54:29;;;;;;;15.18;10.98;;;13.00;83.40;;;;;;5038119;28;20045;-82
2021/05/12 05:56:55;;;;;;;12.70;9.98;;;13.00;83.30;;;;;;5017116;28;20060;-78
2021/05/12 05:59:21;;;;;;;13.77;10.40;;;12.90;83.00;;;;;;5029563;28;20049;-78
2021/05/12 06:01:46;;;;;;;12.85;9.30;;;13.00;83.10;;;;;;5041298;28;20117;-79
2021/05/12 06:04:12;;;;;;;12.95;10.50;;;12.90;83.10;;;;;;5038480;28;20042;-75
2021/05/12 06:06:38;;;;;;;14.30;10.20;;;12.90;83.10;;;;;;5038822;28;20044;-79
2021/05/12 06:09:04;;;;;;;13.98;9.35;;;12.90;82.80;;;;;;5039903;28;20048;-79
2021/05/12 06:11:30;;;;;;;13.05;9.43;;;12.90;82.70;;;;;;5039214;28;20049;-83
2021/05/12 06:14:00;;;;;;;14.00;9.35;;;12.90;82.60;;;;;;5036473;28;20055;-78
2021/05/12 06:16:26;;;;;;;15.85;9.57;;;12.90;82.60;;;;;;5023949;28;20455;-79
2021/05/12 06:18:52;;;;;;;15.70;9.43;;;12.90;82.60;;;;;;4990252;28;20110;-79
2021/05/12 06:21:18;;;;;;;11.60;8.63;;;12.90;82.50;;;;;;5022826;28;20383;-79
2021/05/12 06:23:44;;;;;;;15.00;9.60;;;12.90;82.40;;;;;;5039391;28;20067;-80
2021/05/12 06:26:19;;;;;;;13.93;8.60;;;12.90;82.30;;;;;;5039938;28;20049;-80
2021/05/12 06:28:45;;;;;;;12.38;8.43;;;12.90;82.30;;;;;;5028215;28;20315;-76
2021/05/12 06:31:11;;;;;;;12.85;8.52;;;12.90;82.20;;;;;;5026568;28;20056;-77
2021/05/12 06:33:39;;;;;;;14.63;8.50;;;12.90;82.20;;;;;;5025366;28;20087;-83
2021/05/12 06:36:08;;;;;;;14.10;8.02;;;12.90;82.20;;;;;;5008623;28;20040;-76
2021/05/12 06:38:34;;;;;;;11.70;7.93;;;12.90;82.10;;;;;;5023911;28;20053;-80
2021/05/12 06:40:59;;;;;;;15.38;8.15;;;12.90;82.10;;;;;;5042213;28;20045;-81
2021/05/12 06:43:29;;;;;;;12.18;7.40;;;12.90;82.10;;;;;;5018892;28;20094;-80
2021/05/12 06:45:55;;;;;;;10.30;7.47;;;12.90;82.00;;;;;;4994599;28;20986;-77
2021/05/12 06:48:21;;;;;;;14.70;7.28;;;12.90;81.80;;;;;;5034198;28;20108;-83
2021/05/12 06:50:47;;;;;;;14.15;7.70;;;12.90;81.60;;;;;;5022275;28;20044;-78
2021/05/12 06:53:13;;;;;;;11.68;7.20;;;13.00;81.40;;;;;;5019934;28;20045;-83
2021/05/12 06:55:39;;;;;;;14.38;8.10;;;12.90;81.20;;;;;;5032519;28;20036;-88
2021/05/12 06:58:07;;;;;;;12.48;8.30;;;13.00;81.00;;;;;;5025441;28;20037;-80
2021/05/12 07:00:33;;;;;;;12.98;7.50;;;13.00;80.90;;;;;;4987117;28;20494;-82
2021/05/12 07:03:02;;;;;;;10.40;6.88;;;13.00;80.90;;;;;;4998106;28;20048;-82
2021/05/12 07:05:29;;;;;;;10.10;5.00;;;13.00;80.80;;;;;;5049764;28;20111;-79
2021/05/12 07:07:55;;;;;;;7.38;4.43;;;13.20;82.00;;;;;;5009018;28;20433;-78
2021/05/12 07:10:20;;;;;;;8.73;4.75;;;13.60;81.70;;;;;;5009238;28;20072;-82
2021/05/12 07:12:47;;;;;;;8.30;5.03;;;14.00;81.60;;;;;;5024788;28;20354;-77
2021/05/12 07:15:15;;;;;;;12.43;6.72;;;14.30;80.40;;;;;;5008496;28;20053;-83
2021/05/12 07:17:41;;;;;;;15.15;7.68;;;14.40;78.40;;;;;;5008784;28;20425;-86
2021/05/12 07:20:08;;;;;;;11.18;7.30;;;14.30;77.40;;;;;;5017400;28;20064;-79
2021/05/12 07:22:36;;;;;;;13.02;6.63;;;14.20;77.30;;;;;;5008090;28;20098;-83
2021/05/12 07:25:02;;;;;;;14.82;7.15;;;14.10;77.20;;;;;;5023572;28;20056;-81
2021/05/12 07:27:32;;;;;;;13.43;6.68;;;13.90;77.20;;;;;;5040205;28;20057;-81
2021/05/12 07:30:00;;;;;;;11.93;6.88;;;13.90;77.50;;;;;;5006378;28;20522;-79
2021/05/12 07:32:26;;;;;;;9.88;6.13;;;13.80;77.70;;;;;;5022987;28;20049;-80
2021/05/12 07:34:52;;;;;;;11.50;5.88;;;13.80;77.60;;;;;;5022493;28;20465;-79
2021/05/12 07:37:34;;;;;;;11.50;6.78;;;13.70;77.40;;;;;;5026481;28;20434;-80
2021/05/12 07:40:00;;;;;;;10.77;5.97;;;13.70;77.30;;;;;;5006145;28;20048;-81
2021/05/12 07:42:27;;;;;;;9.25;5.47;;;13.70;77.20;;;;;;5018614;28;20065;-83
2021/05/12 07:44:53;;;;;;;9.85;5.97;;;13.70;77.10;;;;;;5007385;28;20041;-80
2021/05/12 07:47:21;;;;;;;9.02;6.00;;;13.70;77.10;;;;;;4987061;28;20053;-81
2021/05/12 07:49:48;;;;;;;12.25;5.85;;;13.70;77.00;;;;;;4986888;28;20049;-83
2021/05/12 07:52:15;;;;;;;10.60;4.60;;;13.70;76.90;;;;;;5027788;28;20071;-75
2021/05/12 07:54:41;;;;;;;8.23;3.80;;;13.70;77.30;;;;;;5028007;28;20048;-77
2021/05/12 07:57:08;;;;;;;9.52;4.68;;;14.00;78.60;;;;;;5010625;28;20026;-83
2021/05/12 07:59:34;;;;;;;8.63;4.22;;;14.40;78.50;;;;;;4995313;28;20033;-75
2021/05/12 08:02:04;;;;;;;10.20;4.05;;;14.50;77.10;;;;;;5007850;28;20582;-77
2021/05/12 08:04:33;;;;;;;9.03;3.77;;;14.50;76.00;;;;;;5030054;28;20071;-78
2021/05/12 08:07:18;;;;;;;9.90;3.90;;;14.40;75.50;;;;;;5004713;28;20524;-77
2021/05/12 08:09:45;;;;;;;9.95;3.83;;;14.40;75.30;;;;;;5004273;28;20045;-76
2021/05/12 08:12:11;;;;;;;12.73;4.45;;;14.30;74.90;;;;;;4990072;28;20045;-78
2021/05/12 08:14:37;;;;;;;8.05;2.72;;;14.20;74.40;;;;;;4982148;28;20383;-77
2021/05/12 08:17:06;;;;;;;6.80;2.72;;;14.20;74.50;;;;;;4986547;28;20421;-76
2021/05/12 08:19:32;;;;;;;6.85;2.88;;;14.30;76.20;;;;;;4988547;28;20053;-75
2021/05/12 08:22:06;;;;;;;10.57;4.10;;;14.60;76.60;;;;;;5020599;28;20037;-76
2021/05/12 08:24:35;;;;;;;8.93;3.63;;;14.90;76.10;;;;;;5005692;28;20050;-74
2021/05/12 08:27:02;;;;;;;10.80;3.65;;;15.10;75.30;;;;;;4988769;28;20087;-75
2021/05/12 08:29:29;;;;;;;9.60;4.07;;;15.30;74.80;;;;;;5024923;28;20037;-74
2021/05/12 08:31:59;;;;;;;10.57;3.08;;;15.50;74.20;;;;;;5024114;28;20052;-77
2021/05/12 08:34:45;;;;;;;8.80;4.32;;;15.60;73.30;;;;;;5013648;28;20130;-75
2021/05/12 08:37:11;;;;;;;9.60;3.50;;;15.70;72.80;;;;;;5022814;28;20124;-77
2021/05/12 08:39:43;;;;;;;7.47;2.97;;;15.80;72.40;;;;;;4974653;28;20053;-76
2021/05/12 08:42:11;;;;;;;9.10;3.22;;;15.90;71.40;;;;;;5005051;28;20050;-76
2021/05/12 08:44:37;;;;;;;7.70;3.10;;;15.90;70.90;;;;;;4996548;28;20079;-79
2021/05/12 08:47:04;;;;;;;7.38;2.92;;;15.90;70.50;;;;;;5025946;28;20065;-74
2021/05/12 08:49:31;;;;;;;9.20;2.85;;;16.10;70.50;;;;;;5004990;28;20072;-75
2021/05/12 08:51:56;;;;;;;9.68;2.95;;;16.10;69.80;;;;;;5002694;28;20041;-78
2021/05/12 08:54:22;;;;;;;8.60;2.67;;;16.20;69.70;;;;;;5014719;28;20033;-73
2021/05/12 08:56:48;;;;;;;11.60;3.70;;;16.20;69.20;;;;;;5016932;28;20037;-77
2021/05/12 08:59:15;;;;;;;7.88;2.30;;;16.30;68.90;;;;;;4993701;28;20052;-76
2021/05/12 09:01:41;;;;;;;8.13;2.47;;;16.40;68.30;;;;;;5002930;28;20037;-80
2021/05/12 09:04:07;;;;;;;7.35;2.42;;;16.40;67.60;;;;;;5011314;28;20120;-83
2021/05/12 09:06:39;;;;;;;9.65;2.55;;;16.30;67.50;;;;;;5012740;28;20068;-82
2021/05/12 09:09:10;;;;;;;9.95;2.78;;;16.20;67.20;;;;;;5029447;28;20060;-82
2021/05/12 09:11:40;;;;;;;8.35;2.67;;;16.20;67.60;;;;;;5013455;28;20060;-82
2021/05/12 09:14:27;;;;;;;10.07;2.35;;;16.20;67.60;;;;;;5046650;28;20041;-83
2021/05/12 09:16:56;;;;;;;7.15;1.70;;;16.20;66.40;;;;;;5030787;28;20053;-85
2021/05/12 09:19:25;;;;;;;7.68;2.40;;;16.10;67.30;;;;;;5012713;28;20763;-85
2021/05/12 09:22:01;;;;;;;8.60;2.47;;;16.20;67.40;;;;;;5014186;28;20041;-83
2021/05/12 09:24:32;;;;;;;7.07;2.25;;;16.20;66.50;;;;;;5014532;28;20047;-81
2021/05/12 09:27:15;;;;;;;8.07;2.22;;;16.20;67.00;;;;;;4998114;28;20041;-90
2021/05/12 09:29:42;;;;;;;8.90;2.65;;;16.20;66.40;;;;;;4998942;28;20052;-84
2021/05/12 09:32:13;;;;;;;7.10;1.75;;;16.20;66.80;;;;;;5013836;28;20033;-83
2021/05/12 09:35:02;;;;;;;5.28;1.67;;;16.30;66.70;;;;;;5014754;28;20043;-84
2021/05/12 09:37:46;;;;;;;6.43;1.90;;;16.40;65.60;;;;;;5013075;28;20448;-83
2021/05/12 09:40:12;;;;;;;7.68;1.95;;;16.50;65.40;;;;;;5012416;28;20122;-83
2021/05/12 09:42:41;;;;;;;6.88;1.70;;;16.50;65.40;;;;;;5046032;28;20037;-83
2021/05/12 09:45:11;;;;;;;9.80;1.90;;;16.60;65.10;;;;;;4996267;28;20045;-82
2021/05/12 09:47:40;;;;;;;6.93;1.90;;;16.70;64.90;;;;;;5044881;28;20140;-75
2021/05/12 09:50:13;;;;;;;7.05;1.95;;;16.80;65.10;;;;;;5023454;28;20094;-82
2021/05/12 09:52:39;;;;;;;5.07;1.83;;;16.90;65.00;;;;;;5022088;28;20420;-83
2021/05/12 09:55:08;;;;;;;7.30;2.10;;;17.00;65.10;;;;;;5036802;28;20093;-87
2021/05/12 09:57:34;;;;;;;8.27;2.90;;;17.10;64.30;;;;;;5026289;28;20140;-81
2021/05/12 10:00:00;;;;;;;7.10;2.78;;;17.20;64.10;;;;;;5009498;28;20087;-82
2021/05/12 10:02:25;;;;;;;8.82;2.67;;;17.30;63.80;;;;;;5008332;28;20045;-79
2021/05/12 10:04:51;;;;;;;6.43;1.90;;;17.40;63.80;;;;;;5025514;28;20042;-79
2021/05/12 10:07:24;;;;;;;9.95;1.90;;;17.50;63.90;;;;;;5024864;28;20045;-79
2021/05/12 10:09:52;;;;;;;10.30;2.70;;;17.60;63.40;;;;;;5009401;28;20403;-78
2021/05/12 10:12:24;;;;;;;6.25;1.92;;;17.60;63.00;;;;;;5025411;28;20042;-78
2021/05/12 10:14:57;;;;;;;10.65;2.80;;;17.80;63.10;;;;;;4993201;28;20045;-78
2021/05/12 10:17:27;;;;;;;8.90;2.30;;;17.90;63.00;;;;;;5025055;28;20100;-81
2021/05/12 10:19:54;;;;;;;8.35;2.10;;;17.90;62.20;;;;;;4992313;28;20049;-79
2021/05/12 10:22:20;;;;;;;10.00;2.50;;;18.00;62.10;;;;;;5008682;28;20042;-78
2021/05/12 10:24:50;;;;;;;7.13;1.80;;;18.10;61.80;;;;;;5009382;28;20129;-79
2021/05/12 10:27:28;;;;;;;8.35;1.48;;;18.20;61.10;;;;;;5007639;28;20069;-77
2021/05/12 10:29:55;;;;;;;6.85;2.13;;;18.30;60.40;;;;;;5008628;28;20109;-80
2021/05/12 10:32:34;;;;;;;10.50;2.42;;;18.40;60.20;;;;;;5008820;28;20037;-79
2021/05/12 10:35:05;;;;;;;8.40;1.73;;;18.40;58.50;;;;;;5014005;28;20034;-80
2021/05/12 10:37:35;;;;;;;8.88;2.33;;;18.50;59.20;;;;;;5022708;28;20045;-75
2021/05/12 10:40:21;;;;;;;7.95;2.13;;;18.50;59.40;;;;;;5027515;28;20041;-79
2021/05/12 10:48:33;;;;;;;8.43;2.78;;;19.00;59.40;;;;;;5062555;28;20053;-83
2021/05/12 10:51:02;;;;;;;8.25;2.45;;;19.20;58.70;;;;;;5029606;28;20041;-79
2021/05/12 10:53:30;;;;;;;6.82;2.00;;;19.30;59.10;;;;;;5026806;28;20097;-85
2021/05/12 10:55:55;;;;;;;7.63;2.55;;;19.40;58.10;;;;;;5011752;28;20041;-84
2021/05/12 10:58:22;;;;;;;8.80;2.40;;;19.50;57.80;;;;;;5024198;28;20045;-78
2021/05/12 11:01:06;;;;;;;8.27;2.30;;;19.70;57.90;;;;;;5010721;28;20373;-82
2021/05/12 11:03:53;;;;;;;9.27;2.65;;;19.80;57.70;;;;;;4998820;28;20120;-81
2021/05/12 11:06:23;;;;;;;8.07;2.40;;;20.00;57.30;;;;;;5029244;28;20053;-82
2021/05/12 11:09:09;;;;;;;7.68;2.28;;;20.10;57.40;;;;;;4992131;28;20056;-82
2021/05/12 11:11:37;;;;;;;8.88;2.45;;;20.30;56.90;;;;;;5022778;28;20409;-80
2021/05/12 11:14:32;;;;;;;10.85;2.63;;;20.40;57.00;;;;;;5023653;28;20046;-80
2021/05/12 11:17:15;;;;;;;8.02;2.50;;;20.50;55.10;;;;;;4992829;28;20045;-80
2021/05/12 11:22:47;;;;;;;7.93;2.22;;;20.60;54.50;;;;;;5040579;28;20045;-82
2021/05/12 11:25:39;;;;;;;8.32;2.00;;;20.50;53.70;;;;;;4914280;29;20051;-86
2021/05/12 11:31:27;;;;;;;6.40;1.52;;;20.50;54.40;;;;;;5019761;28;20054;-81
2021/05/12 11:33:38;;;;;;;7.25;1.88;;;20.50;53.90;;;;;;5006662;28;20080;-79
2021/05/12 11:36:11;;;;;;;7.60;1.90;;;20.70;54.10;;;;;;4987691;28;20050;-79
2021/05/12 11:38:37;;;;;;;8.30;2.38;;;21.00;53.60;;;;;;4971768;28;20056;-79
2021/05/12 11:41:11;;;;;;;7.65;2.40;;;21.20;52.80;;;;;;4986997;28;20045;-78
2021/05/12 11:43:41;;;;;;;8.30;2.15;;;21.50;51.70;;;;;;4986900;28;20700;-79
2021/05/12 11:46:14;;;;;;;10.18;1.90;;;21.50;51.10;;;;;;4987821;28;20046;-76
2021/05/12 11:48:49;;;;;;;8.15;2.13;;;21.60;51.40;;;;;;5003363;28;20038;-76
2021/05/12 11:51:39;;;;;;;7.88;2.50;;;21.60;51.10;;;;;;5001437;28;20046;-78
2021/05/12 11:54:13;;;;;;;7.18;2.15;;;21.60;51.10;;;;;;5018523;28;20418;-78
2021/05/12 11:56:46;;;;;;;10.63;2.13;;;21.70;50.70;;;;;;5023220;28;20037;-77
2021/05/12 11:59:19;;;;;;;9.10;2.15;;;21.90;49.80;;;;;;5039702;28;20481;-76
2021/05/12 12:01:45;;;;;;;;;;;22.10;49.40;;;;;;5038091;28;20053;-78
2021/05/12 12:04:19;;;;;;;6.15;2.00;;;22.30;47.60;;;;;;5023252;28;19948;-80
2021/05/12 12:06:48;;;;;;;8.07;2.20;;;22.40;48.90;;;;;;5023996;28;20042;-78
2021/05/12 12:09:14;;;;;;;8.40;2.42;;;22.50;47.50;;;;;;5039619;28;20061;-79
2021/05/12 12:11:41;;;;;;;7.32;2.13;;;22.70;48.10;;;;;;5023299;28;20060;-79
2021/05/12 12:14:14;;;;;;;6.90;2.10;;;22.90;47.70;;;;;;5039991;28;20051;-85
2021/05/12 12:16:45;;;;;;;7.28;1.85;;;23.10;45.50;;;;;;5007661;28;20053;-88
2021/05/12 12:19:15;;;;;;;8.07;2.13;;;23.10;45.90;;;;;;5023466;28;20060;-81
2021/05/12 12:21:46;;;;;;;7.68;1.80;;;23.10;44.60;;;;;;5019564;28;20095;-84
2021/05/12 12:24:23;;;;;;;7.47;2.35;;;23.00;43.80;;;;;;5001963;28;20041;-84
2021/05/12 12:26:56;;;;;;;6.60;2.15;;;23.00;43.50;;;;;;4993542;28;20418;-86
2021/05/12 12:29:50;;;;;;;6.63;2.00;;;23.10;44.60;;;;;;5034770;28;20469;-81
2021/05/12 12:32:19;;;;;;;6.05;2.20;;;23.10;42.70;;;;;;5012529;28;20077;-81
2021/05/12 12:34:46;;;;;;;7.30;2.17;;;23.10;44.20;;;;;;5003099;28;20064;-84
2021/05/12 12:37:37;;;;;;;;;;;;;;;;;;;;;
2021/05/12 12:40:08;;;;;;;7.95;1.80;;;23.20;41.60;;;;;;5024760;28;20053;-81
2021/05/12 12:42:53;;;;;;;7.15;1.88;;;23.30;42.60;;;;;;5031610;28;20049;-83
2021/05/12 12:45:31;;;;;;;8.65;1.80;;;23.30;42.10;;;;;;5003483;28;20058;-84
2021/05/12 12:48:16;;;;;;;9.48;2.28;;;23.30;41.30;;;;;;5005159;28;20046;-80
2021/05/12 12:50:47;;;;;;;5.47;1.92;;;23.10;41.30;;;;;;5003172;28;20046;-78
2021/05/12 12:53:18;;;;;;;5.78;1.90;;;23.00;41.80;;;;;;5019189;28;20107;-77
2021/05/12 12:55:44;;;;;;;11.23;2.00;;;23.00;41.90;;;;;;5002635;28;20042;-79
2021/05/12 12:58:12;;;;;;;7.55;2.35;;;23.10;42.70;;;;;;5019441;28;20077;-79